createdAt,value
2022-08-07T00:01:43.089Z,87.70
2022-08-07T00:04:06.109Z,86.60
2022-08-07T00:06:36.236Z,85.90
2022-08-07T00:09:16.254Z,85.70
2022-08-07T00:11:54.484Z,84.50
2022-08-07T00:14:25.490Z,83.50
2022-08-07T00:17:01.876Z,84.40
2022-08-07T00:19:59.917Z,82.80
2022-08-07T00:22:24.428Z,83.60
2022-08-07T00:25:11.172Z,83.10
2022-08-07T00:27:52.593Z,83.10
2022-08-07T00:30:28.118Z,83.50
2022-08-07T00:33:00.391Z,83.90
2022-08-07T00:35:29.635Z,83.70
2022-08-07T00:37:58.498Z,84.00
2022-08-07T00:40:40.024Z,84.50
2022-08-07T00:43:09.763Z,85.10
2022-08-07T00:45:39.317Z,85.40
2022-08-07T00:48:10.823Z,85.20
2022-08-07T00:50:50.309Z,86.00
2022-08-07T00:53:18.249Z,85.90
2022-08-07T00:56:00.678Z,85.90
2022-08-07T00:58:31.699Z,86.20
2022-08-07T01:00:59.246Z,86.90
2022-08-07T01:03:56.206Z,86.70
2022-08-07T01:06:13.792Z,86.60
2022-08-07T01:08:53.962Z,86.20
2022-08-07T01:12:10.078Z,86.40
2022-08-07T01:14:10.866Z,86.50
2022-08-07T01:16:38.120Z,87.20
2022-08-07T01:19:14.894Z,87.40
2022-08-07T01:21:48.559Z,87.70
2022-08-07T01:24:21.260Z,88.30
2022-08-07T01:26:54.165Z,88.50
2022-08-07T01:29:27.925Z,89.30
2022-08-07T01:31:59.758Z,89.30
2022-08-07T01:34:32.277Z,88.70
2022-08-07T01:37:09.776Z,90.00
2022-08-07T01:39:41.061Z,87.40
2022-08-07T01:42:37.910Z,87.40
2022-08-07T01:45:09.686Z,87.20
2022-08-07T01:48:20.371Z,87.10
2022-08-07T01:50:29.058Z,87.20
2022-08-07T01:52:58.732Z,87.70
2022-08-07T01:55:28.492Z,87.90
2022-08-07T01:58:05.953Z,87.90
2022-08-07T02:00:50.089Z,88.40
2022-08-07T02:03:26.314Z,86.80
2022-08-07T02:06:08.919Z,86.70
2022-08-07T02:08:58.997Z,87.30
2022-08-07T02:11:30.741Z,87.70
2022-08-07T02:14:40.275Z,88.20
2022-08-07T02:17:06.911Z,89.20
2022-08-07T02:20:07.750Z,89.60
2022-08-07T02:22:25.718Z,89.80
2022-08-07T02:24:56.115Z,88.80
2022-08-07T02:27:25.047Z,88.60
2022-08-07T02:29:55.096Z,88.00
2022-08-07T02:32:29.983Z,88.00
2022-08-07T02:34:58.338Z,88.20
2022-08-07T02:37:34.230Z,87.70
2022-08-07T02:40:30.149Z,88.60
2022-08-07T02:42:57.508Z,89.30
2022-08-07T02:45:58.165Z,90.00
2022-08-07T02:48:15.723Z,89.60
2022-08-07T02:50:48.417Z,88.40
2022-08-07T02:53:34.054Z,88.10
2022-08-07T02:56:13.146Z,87.70
2022-08-07T02:58:46.990Z,87.50
2022-08-07T03:01:35.369Z,87.40
2022-08-07T03:04:13.067Z,87.30
2022-08-07T03:06:44.776Z,87.30
2022-08-07T03:09:14.519Z,87.30
2022-08-07T03:12:04.173Z,87.40
2022-08-07T03:14:33.965Z,87.20
2022-08-07T03:17:00.943Z,86.80
2022-08-07T03:19:37.118Z,86.60
2022-08-07T03:22:07.010Z,86.20
2022-08-07T03:24:34.914Z,85.80
2022-08-07T03:27:09.097Z,85.70
2022-08-07T03:29:49.488Z,86.30
2022-08-07T03:32:24.620Z,86.10
2022-08-07T03:35:01.190Z,85.90
2022-08-07T03:37:53.799Z,86.60
2022-08-07T03:40:30.910Z,86.20
2022-08-07T03:43:04.341Z,86.40
2022-08-07T03:45:39.751Z,85.40
2022-08-07T03:48:13.033Z,85.20
2022-08-07T03:50:52.186Z,86.00
2022-08-07T03:54:01.804Z,85.90
2022-08-07T03:56:32.829Z,86.20
2022-08-07T03:59:09.858Z,85.50
2022-08-07T04:01:45.466Z,85.30
2022-08-07T04:04:17.583Z,85.90
2022-08-07T04:06:50.691Z,85.50
2022-08-07T04:09:23.001Z,85.10
2022-08-07T04:12:26.214Z,85.50
2022-08-07T04:14:43.820Z,84.70
2022-08-07T04:17:20.929Z,85.20
2022-08-07T04:19:54.655Z,85.10
2022-08-07T04:22:29.306Z,85.30
2022-08-07T04:25:02.130Z,85.40
2022-08-07T04:27:39.242Z,86.40
2022-08-07T04:30:35.928Z,86.00
2022-08-07T04:33:09.508Z,86.40
2022-08-07T04:35:40.448Z,87.10
2022-08-07T04:38:14.219Z,86.70
2022-08-07T04:40:51.731Z,86.60
2022-08-07T04:44:09.688Z,85.90
2022-08-07T04:47:04.742Z,84.50
2022-08-07T04:49:58.199Z,84.80
2022-08-07T04:53:16.624Z,82.90
2022-08-07T04:58:10.239Z,83.70
2022-08-07T05:00:09.633Z,83.40
2022-08-07T05:02:32.085Z,82.60
2022-08-07T05:05:11.466Z,82.20
2022-08-07T05:07:56.978Z,81.40
2022-08-07T05:10:49.116Z,80.90
2022-08-07T05:14:54.375Z,80.40
2022-08-07T05:16:21.006Z,79.90
2022-08-07T05:18:56.091Z,80.70
2022-08-07T05:22:00.220Z,80.30
2022-08-07T05:24:16.961Z,77.70
2022-08-07T05:26:46.548Z,78.50
2022-08-07T05:29:16.514Z,77.70
2022-08-07T05:31:47.615Z,77.20
2022-08-07T05:34:26.409Z,77.00
2022-08-07T05:36:56.616Z,76.50
2022-08-07T05:40:06.901Z,76.70
2022-08-07T05:42:34.668Z,77.80
2022-08-07T05:45:26.356Z,77.60
2022-08-07T05:48:01.927Z,76.10
2022-08-07T05:50:39.596Z,75.40
2022-08-07T05:54:09.598Z,76.20
2022-08-07T05:56:03.349Z,73.80
2022-08-07T05:58:37.705Z,73.30
2022-08-07T06:01:11.765Z,73.40
2022-08-07T06:03:53.771Z,73.40
2022-08-07T06:06:29.507Z,71.80
2022-08-07T06:08:58.293Z,71.90
2022-08-07T06:11:26.455Z,71.70
2022-08-07T06:14:12.821Z,72.40
2022-08-07T06:16:49.961Z,70.00
2022-08-07T06:19:52.129Z,69.90
2022-08-07T06:22:15.416Z,71.40
2022-08-07T06:24:57.767Z,70.70
2022-08-07T06:27:44.440Z,69.00
2022-08-07T06:30:31.754Z,71.60
2022-08-07T06:33:01.715Z,68.30
2022-08-07T06:35:45.684Z,72.00
2022-08-07T06:38:19.950Z,71.60
2022-08-07T06:40:53.226Z,72.70
2022-08-07T06:43:24.631Z,71.40
2022-08-07T06:46:04.763Z,71.70
2022-08-07T06:48:41.859Z,72.30
2022-08-07T06:51:13.075Z,71.80
2022-08-07T06:55:27.214Z,71.70
2022-08-07T06:56:34.467Z,70.70
2022-08-07T07:00:13.649Z,70.60
2022-08-07T07:01:56.199Z,70.70
2022-08-07T07:04:32.210Z,69.50
2022-08-07T07:07:01.960Z,68.70
2022-08-07T07:09:37.452Z,68.30
2022-08-07T07:12:15.643Z,68.80
2022-08-07T07:15:03.249Z,67.80
2022-08-07T07:17:45.246Z,69.40
2022-08-07T07:20:18.207Z,67.70
2022-08-07T07:24:07.062Z,70.10
2022-08-07T07:26:35.138Z,69.40
2022-08-07T07:28:48.389Z,69.30
2022-08-07T07:31:30.266Z,70.00
2022-08-07T07:34:16.144Z,68.10
2022-08-07T07:36:48.019Z,68.80
2022-08-07T07:39:25.417Z,69.00
2022-08-07T07:42:12.961Z,67.70
2022-08-07T07:44:45.539Z,68.30
2022-08-07T07:47:23.048Z,68.40
2022-08-07T07:50:32.444Z,68.10
2022-08-07T07:52:43.388Z,67.50
2022-08-07T07:55:14.308Z,67.80
2022-08-07T07:57:52.191Z,68.60
2022-08-07T08:00:29.500Z,67.30
2022-08-07T08:03:08.778Z,69.20
2022-08-07T08:05:51.156Z,69.00
2022-08-07T08:08:34.280Z,68.30
2022-08-07T08:11:04.898Z,66.10
2022-08-07T08:13:36.639Z,66.90
2022-08-07T08:16:25.239Z,64.60
2022-08-07T08:18:55.320Z,65.50
2022-08-07T08:21:23.115Z,67.10
2022-08-07T08:24:18.631Z,66.40
2022-08-07T08:27:00.244Z,67.60
2022-08-07T08:29:31.471Z,66.50
2022-08-07T08:32:18.386Z,66.10
2022-08-07T08:34:50.202Z,65.80
2022-08-07T08:38:00.630Z,66.20
2022-08-07T08:40:16.329Z,66.30
2022-08-07T08:45:41.872Z,64.80
2022-08-07T08:48:40.849Z,65.10
2022-08-07T08:51:49.242Z,63.40
2022-08-07T08:54:32.895Z,64.00
2022-08-07T08:57:05.320Z,63.30
2022-08-07T08:59:48.274Z,62.30
2022-08-07T09:02:37.527Z,64.60
2022-08-07T09:05:37.339Z,62.70
2022-08-07T09:08:28.713Z,62.00
2022-08-07T09:11:24.843Z,63.60
2022-08-07T09:14:17.937Z,64.30
2022-08-07T09:16:47.852Z,60.20
2022-08-07T09:19:50.689Z,59.60
2022-08-07T09:24:33.194Z,59.60
2022-08-07T09:25:17.922Z,59.20
2022-08-07T09:30:06.238Z,60.00
2022-08-07T09:31:40.827Z,60.60
2022-08-07T09:34:31.509Z,58.40
2022-08-07T09:37:14.791Z,60.40
2022-08-07T09:39:57.918Z,59.40
2022-08-07T09:42:33.571Z,57.30
2022-08-07T09:47:25.940Z,60.10
2022-08-07T09:50:00.761Z,56.50
2022-08-07T09:52:33.361Z,61.00
2022-08-07T09:55:28.966Z,57.50
2022-08-07T09:58:16.503Z,60.00
2022-08-07T10:01:50.332Z,58.80
2022-08-07T10:04:33.031Z,57.00
2022-08-07T10:07:39.912Z,58.50
2022-08-07T10:11:00.327Z,56.80
2022-08-07T10:14:00.612Z,58.30
2022-08-07T10:16:47.202Z,58.30
2022-08-07T10:19:37.777Z,58.50
2022-08-07T10:22:33.626Z,58.20
2022-08-07T10:25:42.268Z,56.80
2022-08-07T10:28:28.898Z,58.30
2022-08-07T10:31:24.746Z,58.10
2022-08-07T10:34:27.357Z,59.00
2022-08-07T10:37:17.639Z,59.30
2022-08-07T10:40:10.802Z,57.80
2022-08-07T10:42:58.433Z,59.00
2022-08-07T10:45:44.134Z,58.70
2022-08-07T10:48:18.285Z,56.70
2022-08-07T10:50:52.130Z,58.60
2022-08-07T10:53:44.394Z,58.60
2022-08-07T10:56:32.993Z,59.20
2022-08-07T10:59:21.225Z,58.80
2022-08-07T11:02:04.755Z,58.70
2022-08-07T11:04:45.693Z,57.50
2022-08-07T11:07:58.416Z,57.30
2022-08-07T11:10:55.413Z,59.30
2022-08-07T11:14:44.399Z,59.20
2022-08-07T11:16:36.324Z,57.70
2022-08-07T11:19:06.899Z,58.00
2022-08-07T11:21:45.353Z,58.90
2022-08-07T11:24:33.696Z,58.70
2022-08-07T11:27:13.527Z,57.30
2022-08-07T11:30:10.127Z,58.40
2022-08-07T11:33:08.017Z,57.40
2022-08-07T11:36:10.016Z,58.80
2022-08-07T11:38:53.885Z,57.80
2022-08-07T11:41:59.964Z,58.00
2022-08-07T11:44:40.461Z,58.60
2022-08-07T11:47:56.624Z,58.40
2022-08-07T11:50:57.642Z,56.70
2022-08-07T11:54:01.628Z,59.70
2022-08-07T11:57:05.763Z,57.60
2022-08-07T12:00:11.440Z,57.50
2022-08-07T12:03:44.366Z,58.50
2022-08-07T12:06:36.321Z,59.70
2022-08-07T12:09:25.837Z,57.20
2022-08-07T12:12:09.545Z,57.80
2022-08-07T12:15:05.173Z,57.70
2022-08-07T12:17:59.617Z,58.90
2022-08-07T12:20:49.302Z,60.60
2022-08-07T12:24:07.707Z,57.20
2022-08-07T12:26:56.989Z,57.60
2022-08-07T12:29:38.688Z,59.10
2022-08-07T12:32:12.745Z,58.00
2022-08-07T12:34:42.141Z,59.90
2022-08-07T12:37:27.984Z,58.30
2022-08-07T12:40:23.990Z,58.00
2022-08-07T12:42:59.315Z,59.10
2022-08-07T12:45:35.534Z,58.80
2022-08-07T12:48:28.485Z,58.20
2022-08-07T12:51:12.988Z,59.10
2022-08-07T12:54:36.755Z,58.50
2022-08-07T12:56:56.495Z,59.70
2022-08-07T12:59:33.318Z,58.80
2022-08-07T13:02:39.611Z,58.40
2022-08-07T13:06:02.652Z,58.50
2022-08-07T13:08:21.552Z,58.90
2022-08-07T13:11:21.300Z,59.10
2022-08-07T13:14:29.197Z,57.50
2022-08-07T13:18:00.700Z,58.80
2022-08-07T13:20:51.024Z,57.40
2022-08-07T13:24:04.109Z,59.10
2022-08-07T13:26:54.873Z,57.50
2022-08-07T13:29:25.349Z,57.10
2022-08-07T13:32:00.133Z,56.20
2022-08-07T13:35:08.899Z,55.90
2022-08-07T13:38:24.707Z,55.60
2022-08-07T13:40:57.100Z,55.90
2022-08-07T13:43:28.141Z,55.80
2022-08-07T13:46:21.798Z,55.00
2022-08-07T13:48:58.623Z,56.50
2022-08-07T13:52:22.843Z,55.20
2022-08-07T13:54:23.504Z,56.40
2022-08-07T13:56:59.514Z,56.20
2022-08-07T13:59:30.404Z,57.00
2022-08-07T14:02:06.434Z,56.70
2022-08-07T14:04:50.316Z,56.00
2022-08-07T14:07:24.527Z,55.10
2022-08-07T14:10:01.490Z,55.60
2022-08-07T14:12:49.144Z,56.10
2022-08-07T14:15:31.851Z,56.40
2022-08-07T14:18:32.176Z,56.30
2022-08-07T14:22:02.167Z,56.80
2022-08-07T14:24:28.046Z,55.80
2022-08-07T14:27:00.612Z,57.80
2022-08-07T14:30:08.195Z,55.40
2022-08-07T14:32:20.526Z,56.90
2022-08-07T14:34:54.028Z,56.10
2022-08-07T14:37:32.923Z,55.80
2022-08-07T14:40:17.514Z,55.40
2022-08-07T14:43:57.949Z,56.30
2022-08-07T14:46:11.635Z,55.50
2022-08-07T14:48:48.371Z,55.50
2022-08-07T14:51:24.647Z,54.80
2022-08-07T14:54:34.423Z,55.80
2022-08-07T14:57:05.433Z,54.20
2022-08-07T15:00:04.433Z,55.80
2022-08-07T15:02:34.055Z,55.50
2022-08-07T15:05:04.102Z,55.40
2022-08-07T15:07:51.314Z,55.40
2022-08-07T15:10:26.005Z,55.10
2022-08-07T15:12:58.372Z,55.30
2022-08-07T15:15:40.067Z,57.00
2022-08-07T15:21:58.804Z,56.70
2022-08-07T15:25:15.194Z,56.60
2022-08-07T15:27:26.132Z,55.20
2022-08-07T15:32:50.686Z,55.40
2022-08-07T15:36:00.917Z,55.60
2022-08-07T15:41:23.461Z,56.00
2022-08-07T15:44:10.065Z,56.00
2022-08-07T15:46:47.361Z,55.20
2022-08-07T15:50:05.971Z,56.30
2022-08-07T15:52:17.259Z,55.80
2022-08-07T15:54:49.496Z,55.70
2022-08-07T15:57:39.628Z,55.40
2022-08-07T16:00:31.115Z,56.90
2022-08-07T16:03:03.041Z,56.20
2022-08-07T16:05:31.593Z,56.80
2022-08-07T16:08:31.925Z,56.90
2022-08-07T16:11:27.111Z,56.90
2022-08-07T16:14:03.280Z,56.20
2022-08-07T16:17:15.988Z,56.30
2022-08-07T16:19:58.803Z,56.60
2022-08-07T16:22:58.414Z,57.30
2022-08-07T16:25:55.035Z,57.10
2022-08-07T16:30:07.440Z,56.60
2022-08-07T16:31:50.709Z,56.70
2022-08-07T16:34:40.263Z,63.00
2022-08-07T16:40:35.790Z,57.10
2022-08-07T16:44:04.263Z,57.00
2022-08-07T16:47:08.776Z,57.80
2022-08-07T16:50:27.886Z,57.80
2022-08-07T16:53:48.045Z,57.10
2022-08-07T16:56:26.586Z,57.10
2022-08-07T16:59:17.333Z,57.90
2022-08-07T17:02:05.463Z,57.70
2022-08-07T17:04:58.481Z,59.80
2022-08-07T17:07:55.140Z,60.90
2022-08-07T17:10:54.815Z,61.20
2022-08-07T17:13:41.297Z,62.30
2022-08-07T17:16:25.087Z,61.60
2022-08-07T17:18:52.087Z,62.90
2022-08-07T17:21:23.816Z,64.20
2022-08-07T17:24:23.751Z,64.30
2022-08-07T17:26:56.141Z,65.40
2022-08-07T17:30:14.915Z,64.80
2022-08-07T17:32:52.163Z,64.70
2022-08-07T17:35:50.502Z,65.10
2022-08-07T17:38:33.060Z,64.60
2022-08-07T17:41:12.299Z,65.20
2022-08-07T17:44:08.312Z,65.00
2022-08-07T17:46:56.571Z,64.90
2022-08-07T17:49:44.936Z,66.60
2022-08-07T17:52:34.968Z,66.00
2022-08-07T17:55:54.107Z,66.10
2022-08-07T17:58:09.167Z,65.40
2022-08-07T18:00:49.278Z,66.30
2022-08-07T18:03:25.551Z,66.30
2022-08-07T18:06:16.471Z,66.40
2022-08-07T18:09:01.854Z,66.70
2022-08-07T18:12:16.015Z,66.60
2022-08-07T18:14:54.649Z,67.60
2022-08-07T18:18:33.005Z,67.90
2022-08-07T18:21:08.042Z,67.50
2022-08-07T18:23:43.664Z,68.10
2022-08-07T18:26:26.356Z,67.50
2022-08-07T18:30:04.727Z,68.10
2022-08-07T18:32:29.227Z,66.70
2022-08-07T18:35:08.713Z,67.50
2022-08-07T18:38:58.252Z,67.40
2022-08-07T18:41:20.440Z,67.40
2022-08-07T18:44:08.979Z,67.60
2022-08-07T18:46:58.215Z,69.10
2022-08-07T18:50:31.694Z,70.10
2022-08-07T18:52:53.777Z,70.00
2022-08-07T18:55:55.788Z,70.50
2022-08-07T18:58:41.514Z,70.50
2022-08-07T19:02:18.956Z,70.70
2022-08-07T19:04:15.916Z,71.80
2022-08-07T19:06:58.594Z,72.10
2022-08-07T19:09:56.919Z,72.20
2022-08-07T19:12:49.121Z,72.20
2022-08-07T19:16:05.804Z,71.00
2022-08-07T19:18:50.577Z,71.60
2022-08-07T19:21:47.444Z,72.10
2022-08-07T19:24:45.725Z,70.90
2022-08-07T19:28:30.496Z,71.70
2022-08-07T19:30:55.625Z,71.80
2022-08-07T19:33:10.344Z,70.60
2022-08-07T19:35:42.876Z,70.50
2022-08-07T19:38:16.074Z,70.60
2022-08-07T19:40:50.472Z,70.90
2022-08-07T19:43:43.457Z,70.00
2022-08-07T19:46:19.095Z,69.40
2022-08-07T19:48:57.510Z,68.80
2022-08-07T19:51:51.234Z,66.80
2022-08-07T19:54:34.861Z,66.20
2022-08-07T19:58:01.027Z,66.20
2022-08-07T20:00:02.226Z,65.20
2022-08-07T20:02:54.257Z,65.30
2022-08-07T20:05:29.973Z,65.70
2022-08-07T20:08:03.390Z,65.40
2022-08-07T20:10:54.667Z,65.40
2022-08-07T20:13:32.090Z,66.00
2022-08-07T20:16:02.227Z,64.90
2022-08-07T20:18:32.237Z,66.20
2022-08-07T20:21:14.816Z,65.70
2022-08-07T20:24:00.453Z,66.30
2022-08-07T20:26:44.734Z,66.20
2022-08-07T20:29:46.534Z,66.40
2022-08-07T20:32:04.205Z,66.50
2022-08-07T20:34:50.056Z,66.60
2022-08-07T20:37:23.698Z,67.10
2022-08-07T20:40:03.294Z,66.80
2022-08-07T20:42:35.313Z,66.60
2022-08-07T20:46:24.482Z,66.70
2022-08-07T20:47:56.210Z,65.90
2022-08-07T20:50:26.908Z,66.20
2022-08-07T20:52:54.037Z,66.40
2022-08-07T20:55:23.695Z,67.50
2022-08-07T20:58:02.267Z,67.20
2022-08-07T21:00:42.622Z,68.30
2022-08-07T21:03:15.497Z,68.10
2022-08-07T21:05:55.912Z,67.60
2022-08-07T21:08:36.647Z,67.70
2022-08-07T21:11:05.096Z,67.30
2022-08-07T21:13:57.070Z,68.20
2022-08-07T21:16:33.484Z,67.90
2022-08-07T21:19:01.258Z,67.20
2022-08-07T21:21:33.109Z,68.40
2022-08-07T21:24:47.887Z,67.70
2022-08-07T21:27:26.917Z,67.00
2022-08-07T21:30:09.225Z,67.30
2022-08-07T21:32:57.609Z,67.10
2022-08-07T21:36:05.422Z,68.70
2022-08-07T21:38:45.944Z,68.70
2022-08-07T21:41:38.043Z,68.20
2022-08-07T21:44:51.298Z,68.70
2022-08-07T21:47:29.056Z,69.10
2022-08-07T21:50:24.823Z,68.60
2022-08-07T21:53:18.960Z,69.50
2022-08-07T21:55:55.293Z,70.50
2022-08-07T21:59:03.212Z,69.00
2022-08-07T22:02:10.837Z,68.50
2022-08-07T22:04:38.131Z,68.90
2022-08-07T22:07:21.697Z,68.40
2022-08-07T22:09:55.377Z,68.20
2022-08-07T22:12:38.318Z,68.80
2022-08-07T22:16:43.804Z,69.60
2022-08-07T22:18:25.279Z,68.40
2022-08-07T22:21:08.308Z,69.10
2022-08-07T22:23:52.684Z,69.70
2022-08-07T22:26:43.978Z,69.90
2022-08-07T22:29:47.401Z,69.30
2022-08-07T22:32:26.678Z,68.70
2022-08-07T22:34:58.312Z,68.70
2022-08-07T22:38:03.312Z,68.50
2022-08-07T22:40:54.550Z,69.10
2022-08-07T22:43:27.875Z,68.80
2022-08-07T22:47:02.329Z,69.50
2022-08-07T22:49:37.921Z,69.60
2022-08-07T22:52:37.651Z,69.70
2022-08-07T22:55:30.099Z,69.30
2022-08-07T22:58:33.887Z,69.70
2022-08-07T23:01:25.185Z,70.00
2022-08-07T23:04:16.443Z,71.20
2022-08-07T23:07:40.022Z,71.90
2022-08-07T23:10:37.580Z,72.50
2022-08-07T23:13:48.820Z,72.00
2022-08-07T23:16:55.562Z,72.70
2022-08-07T23:19:51.018Z,73.90
2022-08-07T23:22:43.324Z,75.10
2022-08-07T23:25:34.161Z,74.90
2022-08-07T23:31:07.053Z,76.00
2022-08-07T23:34:33.726Z,77.70
2022-08-07T23:37:33.834Z,78.20
2022-08-07T23:40:30.169Z,78.30
2022-08-07T23:43:38.193Z,78.50
2022-08-07T23:46:43.536Z,78.00
2022-08-07T23:49:49.787Z,77.90
2022-08-07T23:53:00.475Z,78.20
2022-08-07T23:55:53.477Z,77.40
2022-08-07T23:58:46.154Z,79.40
